• Join FlightAware (Why Join?)
  • Login
  • US Flag 
04:36PM EDT


 

Airport Tracker/Info


-or-


 

Live Flight TrackerFlight Track Log ✈ N593MS ✈ 17-Jul-2013 ✈ KOSU - KGAI

Flight Track Log - Related Links

Times and Time Zones

All times are in EDT time to prevent confusion due to time zone crossing. See the N593MS flight status page for this flight to view local times or setup timezone preferences in your user account.

Time Position Orientation Groundspeed Altitude Reporting Facility
EDT Latitude Longitude Course Direction KTS MPH feet Rate Location/Type
12:01PM 40.0758 -83.0858 97° East 105 121 1,200  Level Indianapolis Center
12:02PM 40.0869 -83.1014 313° West 102 117 1,800 660 Climbing Indianapolis Center
12:03PM 40.1144 -83.0975 North 94 108 2,400 540 Climbing Indianapolis Center
12:04PM 40.1342 -83.0947 North 97 112 2,800 480 Climbing Indianapolis Center
12:05PM 40.1564 -83.0769 31° Northeast 117 135 3,300 480 Climbing Indianapolis Center
12:06PM 40.1508 -83.0333 99° East 122 140 3,900 540 Climbing Indianapolis Center
12:07PM 40.0336 -82.7362 97° East  Level FlightAware Approximate
12:07PM 40.1442 -82.9811 99° East 122 140 4,500  Level Indianapolis Center
12:08PM 40.1367 -82.9367 102° East 123 142 5,000 480 Climbing Indianapolis Center
12:09PM 40.1311 -82.8925 99° East 124 143 5,500 480 Climbing Indianapolis Center
12:10PM 40.1247 -82.8461 100° East 126 145 6,100 480 Climbing Indianapolis Center
12:11PM 40.1192 -82.7997 99° East 127 146 6,600 420 Climbing Indianapolis Center
12:12PM 40.1133 -82.7525 99° East 130 150 7,000 180 Climbing Indianapolis Center
12:13PM 40.1042 -82.6939 102° East 148 170 7,100  Climbing Indianapolis Center
12:14PM 40.0986 -82.6450 98° East 150 173 7,000 -60 Descending Indianapolis Center
12:15PM 40.0908 -82.5775 99° East 158 182 7,000  Level Indianapolis Center
12:16PM 40.0833 -82.5228 100° East 154 177 7,000  Level Indianapolis Center
12:17PM 40.0753 -82.4686 101° East 152 175 7,000  Level Indianapolis Center
12:18PM 40.0686 -82.4122 99° East 154 177 7,100  Climbing Indianapolis Center
12:19PM 40.0611 -82.3575 100° East 153 176 7,100  Level Indianapolis Center
12:20PM 40.0525 -82.2983 101° East 163 188 7,100  Level Indianapolis Center
12:21PM 40.0450 -82.2408 100° East 161 185 7,100  Level Indianapolis Center
12:22PM 40.0375 -82.1819 99° East 162 186 7,100  Level Indianapolis Center
12:23PM 40.0278 -82.1122 100° East 166 191 7,100  Level Indianapolis Center
12:24PM 40.0214 -82.0547 98° East 161 185 7,100  Level Indianapolis Center
12:25PM 40.0147 -81.9947 98° East 165 190 7,100  Level Indianapolis Center
12:26PM 40.0047 -81.9364 103° East 165 190 7,100  Level Indianapolis Center
12:27PM 39.9969 -81.8783 100° East 161 185 7,100  Level Indianapolis Center
12:28PM 39.9889 -81.8197 100° East 162 186 7,100  Level Indianapolis Center
12:30PM 39.9814 -81.7631 100° East 161 185 7,100  Level Indianapolis Center
12:31PM 39.9717 -81.6950 101° East 162 186 7,100  Level Indianapolis Center
12:32PM 39.9628 -81.6364 101° East 162 186 7,100 -60 Level Indianapolis Center
12:33PM 39.9550 -81.5772 100° East 162 186 7,000 60 Descending Indianapolis Center
12:34PM 39.9469 -81.5203 100° East 161 185 7,300 360 Climbing Indianapolis Center
12:35PM 39.9394 -81.4692 101° East 147 169 7,800 420 Climbing Indianapolis Center
12:36PM 39.9325 -81.4253 102° East 140 161 8,200 420 Climbing Indianapolis Center
12:37PM 39.9244 -81.3669 100° East 136 157 8,700 420 Climbing Indianapolis Center
12:38PM 39.9178 -81.3189 100° East 135 155 9,100 180 Climbing Indianapolis Center
12:39PM 39.9108 -81.2669 100° East 144 166 9,100  Level Indianapolis Center
12:40PM 39.9022 -81.2092 101° East 159 183 9,100  Level Indianapolis Center
12:41PM 39.8939 -81.1528 101° East 158 182 9,100  Level Indianapolis Center
12:42PM 39.8867 -81.0944 99° East 161 185 9,100 180 Level Indianapolis Center
12:43PM 39.8775 -81.0403 102° East 154 177 9,500 360 Climbing Indianapolis Center
12:45PM 39.8644 -80.9347 99° East 143 165 10,300 360 Climbing Cleveland Center
12:46PM 39.8583 -80.8833 99° East 143 165 10,700 360 Climbing Cleveland Center
12:47PM 39.8500 -80.8400 104° East 133 153 11,100 180 Climbing Cleveland Center
12:48PM 39.8397 -80.7886 105° East 128 147 11,100  Level Cleveland Center
12:49PM 39.8314 -80.7264 100° East 150 173 11,100  Level Cleveland Center
12:50PM 39.8233 -80.6669 100° East 164 189 11,100  Level Cleveland Center
12:51PM 39.8150 -80.6075 100° East 164 189 11,100  Level Cleveland Center
12:52PM 39.8044 -80.5533 104° East 157 181 11,100 -60 Level Cleveland Center
12:53PM 39.7942 -80.4911 102° East 157 181 11,000 -60 Descending Cleveland Center
12:54PM 39.7878 -80.4264 97° East 172 198 11,000  Level Cleveland Center
12:55PM 39.7772 -80.3725 104° East 159 183 11,000  Level Cleveland Center
12:56PM 39.7689 -80.3131 100° East 159 183 11,000  Level Cleveland Center
12:57PM 39.7581 -80.2508 103° East 165 190 11,100  Climbing Cleveland Center
12:58PM 39.7475 -80.1917 103° East 165 190 11,000  Descending Cleveland Center
12:59PM 39.7411 -80.1350 98° East 159 183 11,100  Climbing Cleveland Center
01:00PM 39.7347 -80.0808 99° East 164 189 11,100  Level Cleveland Center
01:01PM 39.7261 -80.0217 101° East 164 189 11,100  Level Cleveland Center
01:02PM 39.7153 -79.9650 104° East 164 189 11,100  Level Cleveland Center
01:03PM 39.7044 -79.9058 103° East 164 189 11,100  Level Cleveland Center
01:05PM 39.6919 -79.8092 100° East 165 190 11,100  Level Washington Center
01:06PM 39.6814 -79.7519 103° East 165 190 11,100  Level Washington Center
01:07PM 39.6731 -79.6950 101° East 165 190 11,100  Level Washington Center
01:08PM 39.6667 -79.6381 98° East 165 190 11,200  Climbing Washington Center
01:08PM 39.6539 -79.5806 106° East 160 184 11,200 -60 Level Washington Center
01:10PM 39.6453 -79.5236 101° East 160 184 11,100 -60 Descending Washington Center
01:11PM 39.6369 -79.4639 100° East 165 190 11,100  Level Washington Center
01:11PM 39.6261 -79.4094 104° East 165 190 11,200  Climbing Washington Center
01:13PM 39.6197 -79.3525 98° East 165 190 11,200  Level Washington Center
01:14PM 39.6089 -79.2953 104° East 165 190 11,200  Level Washington Center
01:15PM 39.6003 -79.2383 101° East 160 184 11,200 -60 Level Washington Center
01:16PM 39.5894 -79.1811 104° East 160 184 11,100 -60 Descending Washington Center
01:16PM 39.5806 -79.1242 101° East 160 184 11,100  Level Washington Center
01:18PM 39.5719 -79.0644 101° East 166 191 11,100 -60 Level Washington Center
01:19PM 39.5631 -79.0103 102° East 166 191 11,000  Descending Washington Center
01:20PM 39.5522 -78.9558 104° East 166 191 11,100  Climbing Washington Center
01:20PM 39.5433 -78.8964 101° East 166 191 11,000  Descending Washington Center
01:22PM 39.5344 -78.8394 101° East 166 191 11,100  Climbing Washington Center
01:23PM 39.5236 -78.7822 104° East 166 191 11,000 -300 Descending Washington Center
01:23PM 39.5125 -78.7228 104° East 166 191 10,600 -420 Descending Washington Center
01:25PM 39.5017 -78.6603 103° East 166 191 10,200 -480 Descending Washington Center
01:26PM 39.4908 -78.5981 103° East 166 191 9,700 -540 Descending Washington Center
01:27PM 39.4817 -78.5386 101° East 166 191 9,200 -480 Descending Washington Center
01:27PM 39.4750 -78.4736 98° East 166 191 8,800 -420 Descending Washington Center
01:29PM 39.4661 -78.4142 101° East 166 191 8,400 -420 Descending Washington Center
01:29PM 39.4569 -78.3519 101° East 166 191 8,000 -420 Descending Washington Center
01:31PM 39.4478 -78.2953 102° East 166 191 7,600 -420 Descending Washington Center
01:32PM 39.4389 -78.2358 101° East 166 191 7,200 -480 Descending Washington Center
01:33PM 39.4317 -78.1764 99° East 166 191 6,700 -540 Descending Washington Center
01:34PM 39.4331 -78.1172 88° East 161 185 6,200 -540 Descending Washington Center
01:34PM 39.4342 -78.0583 89° East 161 185 5,700 -540 Descending Washington Center
01:35PM 39.4333 -77.9964 91° East 161 185 5,200 -540 Descending Washington Center
01:37PM 39.4261 -77.9397 99° East 161 185 4,700 -420 Descending Washington Center
01:39PM 39.3833 -77.8000 112° Southeast 158 182 3,800 -360 Descending Potomac TRACON
01:40PM 39.3833 -77.7500 90° East 155 178 3,600 -240 Descending Potomac TRACON
01:41PM 39.3667 -77.6833 108° East 157 181 3,400 -60 Descending Potomac TRACON
01:42PM 39.3500 -77.6500 123° Southeast 152 175 3,500  Climbing Potomac TRACON
01:43PM 39.3333 -77.5833 108° East 154 177 3,500  Level Potomac TRACON
01:44PM 39.3333 -77.5333 90° East 152 175 3,600  Climbing Potomac TRACON
01:45PM 39.3167 -77.4833 113° Southeast 147 169 3,500 -120 Descending Potomac TRACON
01:46PM 39.3000 -77.4333 113° Southeast 152 175 3,400  Descending Potomac TRACON
01:47PM 39.2833 -77.3833 113° Southeast 148 170 3,500  Climbing Potomac TRACON
01:48PM 39.2667 -77.3333 113° Southeast 157 181 3,400 -240 Descending Potomac TRACON
01:49PM 39.2500 -77.3000 123° Southeast 159 183 3,100 -480 Descending Potomac TRACON
01:50PM 39.2167 -77.2333 123° Southeast 157 181 2,500 -480 Descending Potomac TRACON
01:51PM 39.2000 -77.2000 123° Southeast 150 173 2,100 -420 Descending Potomac TRACON
01:52PM 39.1833 -77.1667 123° Southeast 111 128 1,700 -360 Descending Potomac TRACON
01:53PM 39.1667 -77.1333 123° Southeast 88 101 1,400 -360 Descending Potomac TRACON
01:54PM 39.1500 -77.1500 218° Southwest 103 119 1,000 -420 Descending Potomac TRACON
01:56PM 39.1683 -77.1660 23° Northeast  Level Estimated
02:03PM 39.1683 -77.1660 206° Southwest  Level Estimated
02:04PM 39.1683 -77.1660 28° Northeast  Level Estimated
02:05PM 39.1683 -77.1660 28° Northeast  Level Estimated
02:06PM 39.1683 -77.1660 28° Northeast  Level Estimated